createdAt,value
2022-12-03T00:01:59.111Z,34.70
2022-12-03T00:04:25.752Z,39.20
2022-12-03T00:06:52.487Z,35.50
2022-12-03T00:09:19.309Z,36.50
2022-12-03T00:11:45.996Z,34.20
2022-12-03T00:14:12.609Z,37.70
2022-12-03T00:16:39.254Z,36.40
2022-12-03T00:19:07.094Z,35.30
2022-12-03T00:21:34.024Z,35.00
2022-12-03T00:24:00.659Z,36.10
2022-12-03T00:26:27.512Z,37.20
2022-12-03T00:28:54.474Z,35.70
2022-12-03T00:31:22.998Z,35.90
2022-12-03T00:33:50.730Z,37.60
2022-12-03T00:36:17.897Z,35.50
2022-12-03T00:38:45.177Z,35.90
2022-12-03T00:41:12.483Z,37.60
2022-12-03T00:43:39.186Z,37.40
2022-12-03T00:46:05.883Z,36.90
2022-12-03T00:48:32.723Z,39.90
2022-12-03T00:50:59.291Z,39.60
2022-12-03T00:53:26.694Z,38.50
2022-12-03T00:55:53.333Z,37.70
2022-12-03T00:58:19.925Z,39.50
2022-12-03T01:00:46.521Z,37.30
2022-12-03T01:03:13.113Z,36.00
2022-12-03T01:05:39.730Z,36.00
2022-12-03T01:08:06.432Z,40.30
2022-12-03T01:10:33.107Z,38.50
2022-12-03T01:12:59.787Z,36.70
2022-12-03T01:15:26.480Z,37.50
2022-12-03T01:17:53.882Z,37.20
2022-12-03T01:20:20.815Z,38.30
2022-12-03T01:22:47.435Z,36.50
2022-12-03T01:25:14.174Z,37.50
2022-12-03T01:27:41.078Z,38.10
2022-12-03T01:30:08.820Z,36.50
2022-12-03T01:32:35.547Z,36.70
2022-12-03T01:35:02.283Z,37.30
2022-12-03T01:37:28.991Z,36.50
2022-12-03T01:39:55.697Z,37.00
2022-12-03T01:42:26.329Z,37.50
2022-12-03T01:44:57.275Z,37.80
2022-12-03T01:47:29.021Z,37.90
2022-12-03T01:50:14.759Z,38.10
2022-12-03T01:52:41.868Z,40.70
2022-12-03T01:55:15.942Z,38.20
2022-12-03T01:57:50.833Z,38.10
2022-12-03T02:00:23.444Z,37.00
2022-12-03T02:02:54.450Z,37.80
2022-12-03T02:05:25.646Z,36.30
2022-12-03T02:07:52.806Z,38.10
2022-12-03T02:10:26.081Z,36.20
2022-12-03T02:13:12.882Z,38.10
2022-12-03T02:15:40.005Z,37.30
2022-12-03T02:18:08.298Z,37.60
2022-12-03T02:20:45.174Z,38.30
2022-12-03T02:23:20.992Z,39.00
2022-12-03T02:25:47.586Z,37.40
2022-12-03T02:28:14.353Z,37.20
2022-12-03T02:30:41.396Z,39.80
2022-12-03T02:33:08.083Z,37.40
2022-12-03T02:35:36.835Z,41.40
2022-12-03T02:38:13.276Z,40.80
2022-12-03T02:40:41.396Z,39.90
2022-12-03T02:43:09.144Z,40.40
2022-12-03T02:45:41.064Z,37.70
2022-12-03T02:48:12.494Z,37.40
2022-12-03T02:50:41.861Z,36.50
2022-12-03T02:53:14.699Z,39.80
2022-12-03T02:55:41.989Z,42.60
2022-12-03T02:58:10.169Z,40.90
2022-12-03T03:00:37.886Z,38.90
2022-12-03T03:03:06.384Z,39.60
2022-12-03T03:05:34.412Z,38.70
2022-12-03T03:08:01.581Z,41.00
2022-12-03T03:10:29.069Z,38.20
2022-12-03T03:12:56.080Z,41.50
2022-12-03T03:15:23.174Z,40.30
2022-12-03T03:17:50.092Z,42.00
2022-12-03T03:20:17.009Z,41.80
2022-12-03T03:22:43.628Z,40.60
2022-12-03T03:25:14.735Z,41.40
2022-12-03T03:27:41.721Z,43.00
2022-12-03T03:30:09.641Z,44.30
2022-12-03T03:32:37.815Z,44.80
2022-12-03T03:35:05.683Z,44.80
2022-12-03T03:37:32.380Z,42.30
2022-12-03T03:39:59.032Z,42.60
2022-12-03T03:42:25.712Z,41.80
2022-12-03T03:44:52.641Z,43.80
2022-12-03T03:47:19.515Z,42.00
2022-12-03T03:49:47.526Z,42.80
2022-12-03T03:52:14.197Z,41.70
2022-12-03T03:54:41.106Z,42.20
2022-12-03T03:57:07.857Z,43.90
2022-12-03T03:59:34.648Z,41.60
2022-12-03T04:02:01.240Z,43.30
2022-12-03T04:04:33.676Z,42.30
2022-12-03T04:07:00.279Z,40.60
2022-12-03T04:09:26.906Z,40.20
2022-12-03T04:12:11.938Z,42.70
2022-12-03T04:14:38.561Z,42.60
2022-12-03T04:17:05.121Z,42.50
2022-12-03T04:19:31.736Z,40.90
2022-12-03T04:22:17.311Z,39.70
2022-12-03T04:24:43.886Z,42.70
2022-12-03T04:27:28.912Z,40.80
2022-12-03T04:29:55.563Z,40.30
2022-12-03T04:32:40.788Z,41.00
2022-12-03T04:35:27.898Z,39.80
2022-12-03T04:37:54.540Z,40.50
2022-12-03T04:40:39.845Z,38.90
2022-12-03T04:43:06.415Z,42.70
2022-12-03T04:45:33.051Z,43.20
2022-12-03T04:47:59.704Z,43.60
2022-12-03T04:50:26.332Z,43.50
2022-12-03T04:52:52.926Z,42.80
2022-12-03T04:55:19.599Z,41.70
2022-12-03T04:57:46.192Z,44.10
2022-12-03T05:00:13.499Z,43.60
2022-12-03T05:02:40.433Z,44.20
2022-12-03T05:05:07.702Z,41.10
2022-12-03T05:07:34.416Z,43.70
2022-12-03T05:10:01.098Z,44.90
2022-12-03T05:12:27.688Z,45.00
2022-12-03T05:14:54.456Z,44.70
2022-12-03T05:17:21.192Z,42.10
2022-12-03T05:20:06.250Z,44.70
2022-12-03T05:22:32.831Z,45.20
2022-12-03T05:24:59.434Z,44.80
2022-12-03T05:27:26.040Z,48.70
2022-12-03T05:29:52.895Z,42.20
2022-12-03T05:32:19.501Z,43.90
2022-12-03T05:34:46.257Z,45.00
2022-12-03T05:37:12.996Z,46.20
2022-12-03T05:39:39.630Z,47.40
2022-12-03T05:42:25.129Z,47.30
2022-12-03T05:44:51.849Z,44.00
2022-12-03T05:47:18.720Z,46.80
2022-12-03T05:49:45.428Z,46.40
2022-12-03T05:52:12.196Z,47.80
2022-12-03T05:54:38.808Z,47.90
2022-12-03T05:57:05.495Z,47.00
2022-12-03T05:59:32.182Z,47.00
2022-12-03T06:01:58.923Z,50.80
2022-12-03T06:04:25.492Z,48.80
2022-12-03T06:06:52.256Z,49.90
2022-12-03T06:09:18.857Z,47.10
2022-12-03T06:11:45.422Z,45.90
2022-12-03T06:14:12.043Z,50.90
2022-12-03T06:16:38.655Z,52.10
2022-12-03T06:19:05.272Z,50.60
2022-12-03T06:21:31.830Z,52.70
2022-12-03T06:23:59.373Z,52.40
2022-12-03T06:26:26.171Z,54.00
2022-12-03T06:28:52.793Z,51.30
2022-12-03T06:31:19.386Z,48.50
2022-12-03T06:33:45.980Z,53.00
2022-12-03T06:36:12.567Z,49.60
2022-12-03T06:38:39.195Z,47.10
2022-12-03T06:41:05.734Z,48.00
2022-12-03T06:43:32.465Z,52.60
2022-12-03T06:45:59.223Z,48.00
2022-12-03T06:48:25.947Z,50.50
2022-12-03T06:50:52.515Z,48.20
2022-12-03T06:53:19.119Z,48.00
2022-12-03T06:55:45.795Z,50.40
2022-12-03T06:58:12.438Z,50.80
2022-12-03T07:00:39.076Z,50.80
2022-12-03T07:03:05.739Z,49.00
2022-12-03T07:05:32.307Z,50.10
2022-12-03T07:07:59.876Z,52.50
2022-12-03T07:10:26.562Z,52.10
2022-12-03T07:12:53.220Z,51.70
2022-12-03T07:15:20.090Z,52.40
2022-12-03T07:17:46.646Z,51.00
2022-12-03T07:20:15.748Z,50.50
2022-12-03T07:22:42.328Z,50.90
2022-12-03T07:25:09.180Z,52.40
2022-12-03T07:27:35.778Z,55.70
2022-12-03T07:30:02.607Z,50.70
2022-12-03T07:32:29.213Z,53.20
2022-12-03T07:34:56.010Z,55.00
2022-12-03T07:37:23.500Z,51.60
2022-12-03T07:39:51.972Z,54.10
2022-12-03T07:42:18.616Z,50.30
2022-12-03T07:44:45.215Z,49.70
2022-12-03T07:47:11.809Z,51.90
2022-12-03T07:49:38.461Z,52.00
2022-12-03T07:52:06.645Z,49.60
2022-12-03T07:54:33.583Z,52.40
2022-12-03T07:57:01.831Z,52.40
2022-12-03T07:59:28.966Z,54.50
2022-12-03T08:01:55.564Z,50.20
2022-12-03T08:04:22.241Z,50.20
2022-12-03T08:06:49.018Z,47.70
2022-12-03T08:09:16.433Z,46.80
2022-12-03T08:11:47.139Z,49.50
2022-12-03T08:14:17.345Z,51.40
2022-12-03T08:16:45.935Z,47.40
2022-12-03T08:19:14.805Z,49.60
2022-12-03T08:21:42.356Z,44.70
2022-12-03T08:24:18.411Z,47.00
2022-12-03T08:26:46.665Z,46.20
2022-12-03T08:29:15.969Z,45.70
2022-12-03T08:31:48.705Z,44.90
2022-12-03T08:34:19.643Z,45.40
2022-12-03T08:36:50.103Z,44.90
2022-12-03T08:39:22.796Z,47.40
2022-12-03T08:42:14.870Z,46.50
2022-12-03T08:44:41.516Z,44.50
2022-12-03T08:47:08.113Z,43.90
2022-12-03T08:49:36.282Z,49.80
2022-12-03T08:52:12.685Z,45.50
2022-12-03T08:54:39.380Z,48.80
2022-12-03T08:57:24.298Z,46.70
2022-12-03T08:59:55.785Z,42.70
2022-12-03T09:02:30.544Z,42.10
2022-12-03T09:04:57.430Z,42.80
2022-12-03T09:07:24.007Z,46.10
2022-12-03T09:09:50.702Z,43.60
2022-12-03T09:12:17.288Z,41.00
2022-12-03T09:14:43.934Z,40.70
2022-12-03T09:17:10.690Z,38.60
2022-12-03T09:19:42.721Z,41.90
2022-12-03T09:22:12.725Z,41.90
2022-12-03T09:24:41.656Z,46.40
2022-12-03T09:27:08.298Z,66.50
2022-12-03T09:29:34.890Z,47.50
2022-12-03T09:32:01.559Z,42.90
2022-12-03T09:34:28.725Z,41.60
2022-12-03T09:36:55.542Z,41.40
2022-12-03T09:39:22.198Z,38.80
2022-12-03T09:41:49.151Z,40.10
2022-12-03T09:44:18.225Z,39.40
2022-12-03T09:46:45.765Z,40.30
2022-12-03T09:49:16.285Z,39.20
2022-12-03T09:51:44.864Z,45.10
2022-12-03T09:54:22.225Z,45.40
2022-12-03T09:56:49.086Z,43.40
2022-12-03T09:59:16.617Z,41.40
2022-12-03T10:01:43.873Z,45.00
2022-12-03T10:04:10.988Z,44.30
2022-12-03T10:06:42.382Z,43.80
2022-12-03T10:09:16.648Z,45.80
2022-12-03T10:11:43.224Z,45.30
2022-12-03T10:14:13.957Z,46.50
2022-12-03T10:16:41.325Z,45.60
2022-12-03T10:19:28.576Z,48.30
2022-12-03T10:21:55.311Z,46.90
2022-12-03T10:24:33.589Z,46.70
2022-12-03T10:27:19.079Z,46.70
2022-12-03T10:29:57.501Z,42.80
2022-12-03T10:32:40.301Z,48.10
2022-12-03T10:35:10.813Z,46.70
2022-12-03T10:37:55.128Z,48.50
2022-12-03T10:40:35.975Z,49.80
2022-12-03T10:43:14.156Z,47.50
2022-12-03T10:45:42.190Z,44.00
2022-12-03T10:48:20.743Z,46.70
2022-12-03T10:51:06.395Z,47.90
2022-12-03T10:53:35.653Z,47.30
2022-12-03T10:56:06.965Z,45.70
2022-12-03T10:58:36.198Z,45.20
2022-12-03T11:01:12.726Z,44.40
2022-12-03T11:03:39.460Z,43.70
2022-12-03T11:06:06.411Z,46.30
2022-12-03T11:08:35.965Z,41.40
2022-12-03T11:11:18.369Z,44.80
2022-12-03T11:13:53.385Z,44.40
2022-12-03T11:16:38.703Z,46.50
2022-12-03T11:19:42.359Z,42.90
2022-12-03T11:22:09.497Z,43.50
2022-12-03T11:24:38.670Z,40.10
2022-12-03T11:27:09.343Z,42.50
2022-12-03T11:29:45.106Z,42.20
2022-12-03T11:32:37.699Z,41.40
2022-12-03T11:35:10.603Z,45.40
2022-12-03T11:37:37.631Z,46.70
2022-12-03T11:40:16.519Z,49.50
2022-12-03T11:42:45.364Z,47.50
2022-12-03T11:45:21.944Z,48.90
2022-12-03T11:47:57.265Z,47.40
2022-12-03T11:50:37.660Z,47.20
2022-12-03T11:53:24.361Z,45.30
2022-12-03T11:56:05.798Z,49.90
2022-12-03T11:58:33.794Z,49.90
2022-12-03T12:01:03.485Z,50.30
2022-12-03T12:03:36.084Z,50.60
2022-12-03T12:06:08.274Z,51.50
2022-12-03T12:08:38.283Z,52.10
2022-12-03T12:11:24.819Z,60.50
2022-12-03T12:14:01.660Z,67.10
2022-12-03T12:16:51.372Z,66.80
2022-12-03T12:19:42.397Z,65.40
2022-12-03T12:22:14.932Z,62.90
2022-12-03T12:24:47.355Z,66.00
2022-12-03T12:27:23.863Z,58.00
2022-12-03T12:30:03.394Z,59.50
2022-12-03T12:32:33.261Z,64.20
2022-12-03T12:35:13.828Z,62.40
2022-12-03T12:37:50.079Z,60.60
2022-12-03T12:40:29.351Z,65.80
2022-12-03T12:42:59.749Z,67.10
2022-12-03T12:45:44.439Z,65.30
2022-12-03T12:48:25.812Z,71.50
2022-12-03T12:51:10.659Z,69.90
2022-12-03T12:53:39.576Z,69.80
2022-12-03T12:56:10.789Z,66.80
2022-12-03T12:58:37.503Z,65.50
2022-12-03T13:01:21.262Z,66.10
2022-12-03T13:03:50.509Z,66.60
2022-12-03T13:06:27.314Z,69.20
2022-12-03T13:08:54.819Z,70.40
2022-12-03T13:11:24.451Z,77.60
2022-12-03T13:13:51.343Z,73.20
2022-12-03T13:16:19.686Z,66.00
2022-12-03T13:18:54.201Z,69.20
2022-12-03T13:21:21.519Z,69.80
2022-12-03T13:23:52.253Z,76.10
2022-12-03T13:26:38.376Z,71.80
2022-12-03T13:29:17.793Z,63.50
2022-12-03T13:31:59.656Z,64.30
2022-12-03T13:34:31.743Z,65.50
2022-12-03T13:37:00.865Z,62.50
2022-12-03T13:39:30.169Z,66.30
2022-12-03T13:42:27.368Z,65.40
2022-12-03T13:44:54.033Z,69.00
2022-12-03T13:47:22.758Z,68.70
2022-12-03T13:49:56.277Z,68.50
2022-12-03T13:52:25.297Z,74.00
2022-12-03T13:54:54.722Z,70.70
2022-12-03T13:57:22.400Z,65.80
2022-12-03T13:59:49.136Z,71.00
2022-12-03T14:02:15.808Z,65.70
2022-12-03T14:04:42.534Z,68.90
2022-12-03T14:07:09.208Z,69.70
2022-12-03T14:09:35.924Z,70.40
2022-12-03T14:12:22.401Z,72.20
2022-12-03T14:14:49.124Z,67.90
2022-12-03T14:17:15.783Z,69.00
2022-12-03T14:19:42.659Z,70.10
2022-12-03T14:22:09.569Z,66.20
2022-12-03T14:24:37.129Z,64.20
2022-12-03T14:27:03.735Z,64.30
2022-12-03T14:29:30.348Z,64.10
2022-12-03T14:31:57.037Z,63.20
2022-12-03T14:34:24.184Z,62.20
2022-12-03T14:36:50.738Z,62.80
2022-12-03T14:39:17.293Z,65.00
2022-12-03T14:42:02.606Z,64.60
2022-12-03T14:44:29.283Z,62.50
2022-12-03T14:46:57.477Z,64.50
2022-12-03T14:49:25.300Z,64.50
2022-12-03T14:51:52.069Z,63.10
2022-12-03T14:54:18.680Z,59.80
2022-12-03T14:56:45.286Z,64.30
2022-12-03T14:59:11.982Z,65.30
2022-12-03T15:01:38.725Z,66.90
2022-12-03T15:04:05.438Z,73.00
2022-12-03T15:06:32.151Z,66.50
2022-12-03T15:08:58.838Z,63.70
2022-12-03T15:11:25.472Z,63.70
2022-12-03T15:13:52.147Z,65.10
2022-12-03T15:16:18.833Z,66.20
2022-12-03T15:18:45.481Z,64.80
2022-12-03T15:21:12.121Z,63.00
2022-12-03T15:23:38.690Z,63.10
2022-12-03T15:26:05.540Z,63.20
2022-12-03T15:28:32.241Z,66.50
2022-12-03T15:30:58.978Z,64.20
2022-12-03T15:33:25.651Z,63.20
2022-12-03T15:35:52.364Z,62.60
2022-12-03T15:38:19.399Z,62.10
2022-12-03T15:40:46.147Z,62.10
2022-12-03T15:43:12.717Z,61.30
2022-12-03T15:45:39.780Z,65.50
2022-12-03T15:48:06.412Z,62.40
2022-12-03T15:50:38.499Z,63.90
2022-12-03T15:53:06.698Z,62.30
2022-12-03T15:55:33.278Z,60.50
2022-12-03T15:57:59.840Z,59.50
2022-12-03T16:00:26.517Z,57.90
2022-12-03T16:02:53.366Z,57.70
2022-12-03T16:05:19.992Z,59.80
2022-12-03T16:07:46.643Z,56.70
2022-12-03T16:10:13.479Z,61.50
2022-12-03T16:12:40.333Z,63.60
2022-12-03T16:15:07.619Z,58.70
2022-12-03T16:17:34.267Z,68.80
2022-12-03T16:20:00.896Z,68.50
2022-12-03T16:22:27.573Z,68.80
2022-12-03T16:24:54.124Z,63.40
2022-12-03T16:27:25.500Z,61.20
2022-12-03T16:29:52.889Z,60.50
2022-12-03T16:32:19.759Z,56.90
2022-12-03T16:34:46.403Z,54.90
2022-12-03T16:37:13.122Z,55.30
2022-12-03T16:39:47.301Z,56.00
2022-12-03T16:42:17.309Z,55.50
2022-12-03T16:45:04.471Z,52.50
2022-12-03T16:47:34.190Z,51.70
2022-12-03T16:50:08.044Z,53.90
2022-12-03T16:52:35.466Z,55.90
2022-12-03T16:55:02.499Z,59.10
2022-12-03T16:57:33.715Z,57.60
2022-12-03T17:00:01.108Z,50.80
2022-12-03T17:02:28.101Z,52.00
2022-12-03T17:04:54.893Z,53.70
2022-12-03T17:07:21.588Z,53.60
2022-12-03T17:09:48.633Z,52.20
2022-12-03T17:12:15.296Z,53.70
2022-12-03T17:14:41.891Z,52.80
2022-12-03T17:17:08.526Z,53.00
2022-12-03T17:19:35.193Z,55.60
2022-12-03T17:22:01.858Z,50.20
2022-12-03T17:24:28.435Z,50.50
2022-12-03T17:26:55.058Z,50.30
2022-12-03T17:29:21.832Z,51.00
2022-12-03T17:31:48.578Z,50.80
2022-12-03T17:34:15.268Z,50.30
2022-12-03T17:36:41.864Z,48.70
2022-12-03T17:39:08.457Z,50.50
2022-12-03T17:41:35.077Z,59.40
2022-12-03T17:44:05.969Z,55.50
2022-12-03T17:46:35.664Z,55.60
2022-12-03T17:49:02.457Z,59.90
2022-12-03T17:51:29.081Z,62.70
2022-12-03T17:53:55.654Z,65.30
2022-12-03T17:56:22.351Z,65.40
2022-12-03T17:58:49.020Z,60.60
2022-12-03T18:01:15.697Z,58.80
2022-12-03T18:03:42.518Z,58.40
2022-12-03T18:06:09.410Z,53.20
2022-12-03T18:08:36.062Z,52.10
2022-12-03T18:11:02.661Z,50.60
2022-12-03T18:13:29.316Z,46.90
2022-12-03T18:15:56.287Z,48.40
2022-12-03T18:18:22.960Z,49.10
2022-12-03T18:20:51.101Z,48.10
2022-12-03T18:23:17.832Z,48.10
2022-12-03T18:25:44.493Z,48.70
2022-12-03T18:28:11.105Z,50.80
2022-12-03T18:30:37.729Z,47.80
2022-12-03T18:33:04.339Z,48.60
2022-12-03T18:35:31.052Z,48.80
2022-12-03T18:37:57.917Z,45.40
2022-12-03T18:40:26.505Z,45.30
2022-12-03T18:42:53.177Z,42.80
2022-12-03T18:45:19.993Z,45.80
2022-12-03T18:47:46.781Z,45.20
2022-12-03T18:50:13.545Z,45.00
2022-12-03T18:52:40.271Z,46.30
2022-12-03T18:55:08.035Z,43.90
2022-12-03T18:57:34.755Z,42.60
2022-12-03T19:00:10.228Z,46.40
2022-12-03T19:03:01.851Z,41.50
2022-12-03T19:05:26.696Z,45.40
2022-12-03T19:07:54.950Z,42.70
2022-12-03T19:10:21.720Z,47.80
2022-12-03T19:12:48.516Z,44.30
2022-12-03T19:15:15.394Z,39.50
2022-12-03T19:17:42.095Z,42.00
2022-12-03T19:20:10.292Z,41.30
2022-12-03T19:22:36.946Z,44.00
2022-12-03T19:25:04.419Z,42.30
2022-12-03T19:27:31.668Z,44.90
2022-12-03T19:29:58.393Z,42.60
2022-12-03T19:32:25.023Z,44.40
2022-12-03T19:34:51.677Z,44.20
2022-12-03T19:37:18.344Z,42.50
2022-12-03T19:39:45.210Z,43.40
2022-12-03T19:42:11.882Z,45.50
2022-12-03T19:44:38.671Z,43.10
2022-12-03T19:47:05.305Z,43.10
2022-12-03T19:49:32.042Z,41.30
2022-12-03T19:51:58.653Z,40.00
2022-12-03T19:54:25.351Z,42.90
2022-12-03T19:56:51.978Z,40.50
2022-12-03T19:59:18.586Z,42.30
2022-12-03T20:01:45.304Z,43.00
2022-12-03T20:04:12.103Z,40.80
2022-12-03T20:06:38.882Z,39.70
2022-12-03T20:09:11.482Z,41.60
2022-12-03T20:11:39.710Z,41.10
2022-12-03T20:14:08.974Z,40.20
2022-12-03T20:16:36.487Z,45.70
2022-12-03T20:19:06.235Z,41.40
2022-12-03T20:21:35.849Z,42.10
2022-12-03T20:24:03.083Z,43.70
2022-12-03T20:26:30.058Z,40.90
2022-12-03T20:28:57.381Z,39.90
2022-12-03T20:31:27.252Z,41.30
2022-12-03T20:33:56.673Z,40.50
2022-12-03T20:36:24.703Z,43.40
2022-12-03T20:39:00.748Z,40.30
2022-12-03T20:41:28.504Z,40.50
2022-12-03T20:43:55.460Z,39.80
2022-12-03T20:46:25.754Z,40.50
2022-12-03T20:48:55.987Z,38.50
2022-12-03T20:51:25.858Z,38.90
2022-12-03T20:53:53.261Z,41.70
2022-12-03T20:56:23.421Z,40.20
2022-12-03T20:58:50.541Z,39.30
2022-12-03T21:01:19.395Z,38.80
2022-12-03T21:03:46.933Z,41.00
2022-12-03T21:06:15.057Z,40.00
2022-12-03T21:08:43.147Z,40.70
2022-12-03T21:11:15.384Z,38.60
2022-12-03T21:13:43.071Z,36.50
2022-12-03T21:16:13.112Z,36.70
2022-12-03T21:18:40.185Z,39.30
2022-12-03T21:21:08.195Z,38.00
2022-12-03T21:23:35.201Z,39.70
2022-12-03T21:26:04.042Z,40.10
2022-12-03T21:28:30.775Z,37.20
2022-12-03T21:31:08.841Z,41.80
2022-12-03T21:33:36.798Z,39.10
2022-12-03T21:36:04.845Z,38.30
2022-12-03T21:38:32.472Z,37.20
2022-12-03T21:40:59.807Z,38.30
2022-12-03T21:43:27.093Z,38.50
2022-12-03T21:45:53.855Z,35.10
2022-12-03T21:48:21.017Z,38.30
2022-12-03T21:51:07.469Z,36.50
2022-12-03T21:53:40.474Z,38.00
2022-12-03T21:56:13.245Z,40.00
2022-12-03T21:58:40.391Z,48.40
2022-12-03T22:01:12.108Z,45.80
2022-12-03T22:03:39.192Z,63.00
2022-12-03T22:06:06.078Z,60.30
2022-12-03T22:08:32.754Z,59.70
2022-12-03T22:11:04.272Z,43.90
2022-12-03T22:13:30.878Z,44.40
2022-12-03T22:15:57.507Z,39.80
2022-12-03T22:18:24.274Z,40.20
2022-12-03T22:20:50.846Z,40.80
2022-12-03T22:23:17.461Z,43.30
2022-12-03T22:25:44.032Z,40.50
2022-12-03T22:28:10.619Z,43.70
2022-12-03T22:30:39.506Z,40.20
2022-12-03T22:33:06.271Z,41.60
2022-12-03T22:35:32.827Z,40.50
2022-12-03T22:37:59.441Z,40.70
2022-12-03T22:40:26.045Z,43.30
2022-12-03T22:42:52.650Z,47.10
2022-12-03T22:45:19.266Z,43.00
2022-12-03T22:47:45.920Z,45.00
2022-12-03T22:50:12.558Z,44.30
2022-12-03T22:52:39.120Z,40.20
2022-12-03T22:55:06.417Z,40.30
2022-12-03T22:57:32.975Z,40.60
2022-12-03T22:59:59.604Z,43.70
2022-12-03T23:02:26.236Z,46.60
2022-12-03T23:04:55.188Z,48.10
2022-12-03T23:07:21.783Z,45.40
2022-12-03T23:09:48.402Z,45.30
2022-12-03T23:12:15.044Z,46.10
2022-12-03T23:14:41.620Z,41.10
2022-12-03T23:17:08.195Z,41.50
2022-12-03T23:19:35.346Z,42.30
2022-12-03T23:22:01.933Z,41.30
2022-12-03T23:24:28.671Z,40.50
2022-12-03T23:26:56.098Z,41.00
2022-12-03T23:29:22.676Z,40.00
2022-12-03T23:31:49.317Z,40.30
2022-12-03T23:34:16.081Z,40.10
2022-12-03T23:36:42.746Z,40.40
2022-12-03T23:39:09.594Z,36.50
2022-12-03T23:41:36.179Z,40.70
2022-12-03T23:44:02.756Z,39.30
2022-12-03T23:46:29.596Z,39.60
2022-12-03T23:48:58.172Z,43.30
2022-12-03T23:51:25.401Z,42.00
2022-12-03T23:53:54.208Z,40.90
2022-12-03T23:56:24.378Z,41.40
2022-12-03T23:58:51.376Z,42.90
